Time;durP1;ratioP1;P1;durP2;ratioP2;P2;SDS_P1;SDS_P2;PMS_P1;PMS_P2;Temp;Humidity;BMP_temperature;BMP_pressure;BME280_temperature;BME280_humidity;BME280_pressure;Samples;Min_cycle;Max_cycle;Signal;HPM_P1;HPM_P2
2021/07/30 00:00:28;;;;;;;8.15;4.88;;;;;;;14.53;91.53;98457.09;5060386;28;20032;-67
2021/07/30 00:02:54;;;;;;;9.20;4.68;;;;;;;14.58;91.59;98456.94;5047688;28;20021;-67
2021/07/30 00:05:19;;;;;;;10.48;4.35;;;;;;;14.61;91.68;98452.41;5044026;28;20028;-67
2021/07/30 00:07:44;;;;;;;9.00;4.25;;;;;;;14.63;91.32;98452.34;5043591;28;20022;-67
2021/07/30 00:10:12;;;;;;;12.23;4.40;;;;;;;14.58;91.51;98446.34;5051592;28;20020;-67
2021/07/30 00:12:38;;;;;;;8.55;4.70;;;;;;;14.52;91.50;98438.63;5083981;28;20016;-67
2021/07/30 00:15:06;;;;;;;14.18;4.18;;;;;;;14.58;91.47;98446.34;5083923;28;20087;-67
2021/07/30 00:17:33;;;;;;;9.30;4.45;;;;;;;14.57;91.58;98444.63;5082740;28;20016;-67
2021/07/30 00:20:00;;;;;;;7.82;4.55;;;;;;;14.55;91.40;98430.56;5083883;28;20095;-67
2021/07/30 00:22:26;;;;;;;7.90;3.72;;;;;;;14.56;91.38;98437.63;5082448;28;20020;-67
2021/07/30 00:24:51;;;;;;;8.88;4.25;;;;;;;14.51;91.35;98434.25;5063794;28;20339;-67
2021/07/30 00:27:17;;;;;;;7.43;4.43;;;;;;;14.49;91.47;98441.41;5063762;28;20040;-67
2021/07/30 00:29:43;;;;;;;7.03;4.35;;;;;;;14.47;91.73;98443.25;5063718;28;20348;-67
2021/07/30 00:32:08;;;;;;;7.20;4.18;;;;;;;14.45;91.63;98439.78;5063624;28;20059;-67
2021/07/30 00:34:34;;;;;;;7.97;4.68;;;;;;;14.41;91.56;98438.19;5050267;28;20063;-67
2021/07/30 00:36:59;;;;;;;8.38;4.40;;;;;;;14.27;91.76;98429.91;5044016;28;20324;-67
2021/07/30 00:39:24;;;;;;;8.23;4.32;;;;;;;14.20;92.26;98428.34;5043690;28;20025;-67
2021/07/30 00:41:50;;;;;;;10.77;5.15;;;;;;;14.16;92.54;98432.03;5043731;28;20080;-67
2021/07/30 00:44:15;;;;;;;6.80;4.22;;;;;;;14.16;92.59;98422.31;5048751;28;20052;-67
2021/07/30 00:46:40;;;;;;;10.13;5.13;;;;;;;14.23;92.42;98428.28;5050503;28;20208;-67
2021/07/30 00:49:06;;;;;;;10.13;3.88;;;;;;;14.30;92.15;98424.50;5063449;28;20021;-67
2021/07/30 00:51:32;;;;;;;11.73;4.50;;;;;;;14.28;91.94;98415.75;5062436;28;20049;-67
2021/07/30 00:53:57;;;;;;;6.88;4.22;;;;;;;14.30;91.90;98427.16;5047872;28;20021;-67
2021/07/30 00:56:23;;;;;;;13.07;5.15;;;;;;;14.24;92.72;98427.38;5043548;28;20021;-67
2021/07/30 00:58:49;;;;;;;8.95;4.75;;;;;;;14.18;92.53;98427.56;5044416;28;20017;-67
2021/07/30 01:01:15;;;;;;;11.18;4.68;;;;;;;14.08;92.03;98439.41;5060459;28;20009;-67
2021/07/30 01:03:40;;;;;;;9.60;4.55;;;;;;;14.14;92.24;98423.31;5053390;28;20021;-67
2021/07/30 01:06:06;;;;;;;13.23;4.20;;;;;;;14.12;92.56;98451.59;5062841;28;20013;-67
2021/07/30 01:08:31;;;;;;;8.45;4.32;;;;;;;14.07;92.56;98453.53;5062787;28;20036;-67
2021/07/30 01:10:57;;;;;;;9.75;3.97;;;;;;;14.00;92.22;98452.03;5057287;28;20285;-67
2021/07/30 01:13:22;;;;;;;7.28;3.88;;;;;;;14.03;92.44;98441.34;5044496;28;20013;-67
2021/07/30 01:15:48;;;;;;;6.90;3.72;;;;;;;13.90;92.18;98430.34;5043360;28;20036;-67
2021/07/30 01:18:13;;;;;;;8.95;3.75;;;;;;;13.91;92.45;98447.94;5043340;28;20017;-67
2021/07/30 01:20:43;;;;;;;9.75;3.78;;;;;;;13.89;92.33;98480.66;5045187;28;20017;-67
2021/07/30 01:23:10;;;;;;;11.50;4.55;;;;;;;13.90;92.50;98488.56;5057743;28;20024;-67
2021/07/30 01:25:35;;;;;;;8.30;3.88;;;;;;;13.89;92.53;98464.78;5065982;28;20021;-67
2021/07/30 01:28:01;;;;;;;12.40;4.07;;;;;;;13.84;92.73;98456.13;5064909;28;20248;-67
2021/07/30 01:30:27;;;;;;;6.95;3.97;;;;;;;13.85;92.83;98452.56;5066131;28;20025;-67
2021/07/30 01:32:53;;;;;;;6.47;3.75;;;;;;;13.93;92.44;98455.81;5056465;28;20029;-67
2021/07/30 01:35:18;;;;;;;11.52;4.18;;;;;;;13.89;92.20;98459.50;5061887;28;20252;-67
2021/07/30 01:37:44;;;;;;;6.03;4.03;;;;;;;13.91;92.32;98465.59;5047778;28;20027;-67
2021/07/30 01:40:10;;;;;;;10.40;4.43;;;;;;;13.88;92.24;98524.78;5046625;28;20043;-67
2021/07/30 01:42:36;;;;;;;7.80;4.60;;;;;;;13.84;92.54;98572.53;5054887;28;20070;-67
2021/07/30 01:45:05;;;;;;;7.72;4.65;;;;;;;13.73;93.08;98564.13;5055573;28;20383;-67
2021/07/30 01:47:31;;;;;;;7.82;4.30;;;;;;;13.74;93.23;98581.72;5060963;28;20025;-67
2021/07/30 01:49:56;;;;;;;18.65;5.18;;;;;;;13.69;93.23;98583.63;5065603;28;20066;-67
2021/07/30 01:52:21;;;;;;;9.88;4.15;;;;;;;13.68;93.43;98603.06;5065790;28;20021;-67
2021/07/30 01:54:47;;;;;;;8.55;4.70;;;;;;;13.70;93.63;98643.56;5065473;28;20025;-67
2021/07/30 01:57:13;;;;;;;8.52;4.15;;;;;;;13.72;93.33;98642.59;5059386;28;20022;-67
2021/07/30 01:59:41;;;;;;;15.85;5.30;;;;;;;13.78;93.42;98652.09;5046101;28;20395;-67
2021/07/30 02:02:07;;;;;;;9.50;5.07;;;;;;;13.82;93.62;98648.44;5044977;28;20021;-67
2021/07/30 02:04:32;;;;;;;10.02;4.63;;;;;;;13.89;93.33;98671.16;5046166;28;20044;-67
2021/07/30 02:06:58;;;;;;;7.68;4.32;;;;;;;13.94;93.14;98700.97;5065607;28;20025;-67
2021/07/30 02:09:23;;;;;;;6.50;4.20;;;;;;;13.95;92.51;98702.72;5065455;28;20021;-67
2021/07/30 02:11:53;;;;;;;7.40;3.78;;;;;;;13.95;92.70;98729.19;5051286;28;20351;-67
2021/07/30 02:14:28;;;;;;;11.75;4.30;;;;;;;13.79;92.42;98720.00;5047967;28;20048;-67
2021/07/30 02:16:55;;;;;;;8.32;4.13;;;;;;;13.66;93.29;98722.13;5053210;28;20025;-67
2021/07/30 02:19:22;;;;;;;7.57;3.83;;;;;;;13.68;93.50;98788.22;5064981;28;20029;-67
2021/07/30 02:21:50;;;;;;;7.47;4.32;;;;;;;13.73;93.23;98767.78;5065288;28;20040;-67
2021/07/30 02:24:16;;;;;;;12.80;4.82;;;;;;;13.68;93.50;98724.72;5064075;28;20021;-67
2021/07/30 02:26:42;;;;;;;7.88;4.75;;;;;;;13.72;93.14;98705.19;5063528;28;20024;-67
2021/07/30 02:29:08;;;;;;;12.18;4.40;;;;;;;13.75;92.71;98699.81;5065100;28;20021;-67
2021/07/30 02:31:33;;;;;;;7.72;4.05;;;;;;;13.60;92.75;98718.81;5060755;28;20044;-67
2021/07/30 02:33:59;;;;;;;9.50;3.95;;;;;;;13.57;92.94;98729.50;5045621;28;20340;-67
2021/07/30 02:36:24;;;;;;;10.38;4.22;;;;;;;13.51;92.80;98695.28;5061791;28;20017;-67
2021/07/30 02:38:50;;;;;;;7.90;3.95;;;;;;;13.58;92.63;98678.31;5058067;28;20028;-67
2021/07/30 02:41:18;;;;;;;12.32;3.85;;;;;;;13.47;92.78;98720.06;5055334;28;20017;-66
2021/07/30 02:43:45;;;;;;;9.10;3.95;;;;;;;13.35;92.22;98657.00;5045689;28;20017;-66
2021/07/30 02:46:11;;;;;;;7.15;3.88;;;;;;;13.31;92.21;98644.78;5045352;28;20017;-66
2021/07/30 02:48:37;;;;;;;12.85;4.68;;;;;;;13.25;93.08;98644.97;5045305;28;20025;-66
2021/07/30 02:51:03;;;;;;;6.63;3.78;;;;;;;13.18;92.63;98653.97;5081622;28;20020;-66
2021/07/30 02:53:29;;;;;;;6.55;3.80;;;;;;;13.09;92.84;98627.84;5085201;28;20016;-66
2021/07/30 02:55:54;;;;;;;9.38;3.38;;;;;;;12.94;92.28;98703.94;5079592;28;20012;-66
2021/07/30 02:58:20;;;;;;;10.30;3.72;;;;;;;12.89;92.57;98700.59;5076853;28;20013;-66
2021/07/30 03:00:45;;;;;;;5.85;3.38;;;;;;;12.87;92.22;98723.50;5084912;28;20037;-67
2021/07/30 03:03:10;;;;;;;4.75;3.08;;;;;;;12.98;92.46;98805.13;5084949;28;20231;-67
2021/07/30 03:05:36;;;;;;;5.55;3.72;;;;;;;12.81;92.67;98739.53;5084989;28;20020;-67
2021/07/30 03:08:01;;;;;;;5.88;3.58;;;;;;;12.74;92.21;98732.69;5084976;28;20323;-67
2021/07/30 03:10:27;;;;;;;5.60;3.30;;;;;;;12.73;92.51;98762.66;5071025;28;20024;-67
2021/07/30 03:12:52;;;;;;;11.18;3.38;;;;;;;12.59;92.13;98764.75;5064818;28;20044;-67
2021/07/30 03:15:17;;;;;;;7.38;3.45;;;;;;;12.66;92.17;98798.00;5055325;28;20209;-67
2021/07/30 03:17:43;;;;;;;19.95;3.42;;;;;;;12.53;92.50;98787.81;5064170;28;20017;-67
2021/07/30 03:20:09;;;;;;;12.50;3.38;;;;;;;12.45;92.56;98787.13;5063870;28;20029;-67
2021/07/30 03:22:34;;;;;;;14.65;4.13;;;;;;;12.39;92.94;98813.66;5055108;28;20204;-67
2021/07/30 03:25:00;;;;;;;8.60;3.60;;;;;;;12.39;92.93;98793.44;5053573;28;20245;-67
2021/07/30 03:27:26;;;;;;;6.43;3.60;;;;;;;12.39;93.03;98818.94;5064023;28;20028;-67
2021/07/30 03:29:52;;;;;;;13.18;3.85;;;;;;;12.28;92.82;98831.53;5071059;28;20091;-67
2021/07/30 03:32:17;;;;;;;12.70;5.93;;;;;;;12.15;92.41;98844.13;5046132;28;20056;-67
2021/07/30 03:34:43;;;;;;;10.80;3.65;;;;;;;12.18;93.18;98896.84;5045595;28;20018;-67
2021/07/30 03:37:08;;;;;;;6.53;3.35;;;;;;;12.17;92.44;98881.91;5044463;28;20032;-67
2021/07/30 03:39:34;;;;;;;10.00;3.85;;;;;;;12.08;92.54;98924.31;5062408;28;20308;-67
2021/07/30 03:41:59;;;;;;;9.70;4.18;;;;;;;12.07;92.47;98900.59;5063574;28;20020;-67
2021/07/30 03:44:25;;;;;;;15.35;3.95;;;;;;;12.05;92.73;98913.81;5063045;28;20243;-67
2021/07/30 03:46:50;;;;;;;8.05;3.85;;;;;;;11.94;92.85;98931.66;5063697;28;20282;-67
2021/07/30 03:49:15;;;;;;;4.95;3.10;;;;;;;11.95;92.70;98914.91;5062289;28;20016;-67
2021/07/30 03:51:41;;;;;;;5.28;3.22;;;;;;;12.04;92.34;98949.03;5081167;28;20215;-67
2021/07/30 03:54:06;;;;;;;5.15;2.80;;;;;;;11.94;92.18;98942.22;5084244;28;20081;-67
2021/07/30 03:56:32;;;;;;;5.00;3.13;;;;;;;11.95;92.38;98949.22;5084135;28;20096;-67
2021/07/30 03:58:57;;;;;;;3.88;2.63;;;;;;;12.03;92.31;98971.06;5083896;28;20079;-67
2021/07/30 04:01:22;;;;;;;4.32;2.65;;;;;;;11.86;91.42;99001.25;5064203;28;20013;-67
2021/07/30 04:03:50;;;;;;;4.38;2.88;;;;;;;11.84;91.99;98993.41;5049278;28;20057;-67
2021/07/30 04:06:16;;;;;;;4.15;2.15;;;;;;;11.84;91.82;98998.69;5055136;28;20088;-67
2021/07/30 04:08:43;;;;;;;4.97;2.33;;;;;;;11.85;92.10;99065.47;5063644;28;20247;-67
2021/07/30 04:11:08;;;;;;;7.53;2.83;;;;;;;11.82;92.21;99000.47;5063821;28;20024;-67
2021/07/30 04:13:34;;;;;;;3.83;2.55;;;;;;;11.79;91.82;98921.41;5068771;28;20020;-67
2021/07/30 04:16:04;;;;;;;3.80;2.88;;;;;;;11.76;92.00;99005.84;5083947;28;20025;-69
2021/07/30 04:18:29;;;;;;;6.88;2.53;;;;;;;11.61;92.41;99000.81;5084188;28;20021;-68
2021/07/30 04:20:55;;;;;;;4.55;2.00;;;;;;;11.64;92.00;98974.41;5048812;28;20021;-67
2021/07/30 04:23:21;;;;;;;11.65;2.92;;;;;;;11.80;92.78;99018.06;5063158;28;20017;-67
2021/07/30 04:25:46;;;;;;;5.15;3.35;;;;;;;11.87;92.15;99029.41;5067813;28;20084;-67
2021/07/30 04:28:11;;;;;;;3.92;2.83;;;;;;;11.84;91.89;99040.88;5070460;28;20130;-67
2021/07/30 04:30:37;;;;;;;6.38;2.97;;;;;;;11.94;91.90;99023.09;5050891;28;20040;-67
2021/07/30 04:33:02;;;;;;;5.25;2.65;;;;;;;11.91;92.11;99031.94;5043826;28;20347;-67
2021/07/30 04:35:28;;;;;;;3.05;2.25;;;;;;;11.95;92.09;99033.63;5044811;28;20075;-67
2021/07/30 04:37:57;;;;;;;2.50;2.15;;;;;;;12.02;92.03;99064.25;5048723;28;20244;-67
2021/07/30 04:40:23;;;;;;;23.70;5.60;;;;;;;11.92;92.05;99062.69;5049342;28;20261;-67
2021/07/30 04:42:49;;;;;;;6.55;3.65;;;;;;;11.99;92.01;99093.34;5063056;28;20031;-67
2021/07/30 04:45:14;;;;;;;5.75;3.58;;;;;;;12.08;91.74;99081.75;5062989;28;20271;-67
2021/07/30 04:47:40;;;;;;;8.02;3.33;;;;;;;12.09;91.47;99068.53;5063548;28;20058;-67
2021/07/30 04:50:06;;;;;;;3.65;2.70;;;;;;;12.13;91.34;99070.22;5063502;28;20089;-67
2021/07/30 04:52:31;;;;;;;2.80;2.10;;;;;;;12.20;91.38;99050.75;5082991;28;20263;-67
2021/07/30 04:54:56;;;;;;;2.75;2.00;;;;;;;12.27;91.74;99017.16;5086228;28;20020;-67
2021/07/30 04:57:22;;;;;;;2.03;1.73;;;;;;;12.44;91.55;99001.88;5087461;28;20024;-67
2021/07/30 04:59:47;;;;;;;3.70;2.35;;;;;;;12.86;90.55;98970.09;5083048;28;20090;-67
2021/07/30 05:02:12;;;;;;;3.95;2.20;;;;;;;13.81;88.27;98990.66;5066067;28;20100;-67
2021/07/30 05:04:38;;;;;;;3.28;1.90;;;;;;;14.57;85.42;99001.75;5067244;28;20020;-67
2021/07/30 05:07:04;;;;;;;3.22;2.10;;;;;;;15.23;82.46;98976.72;5067215;28;20017;-67
2021/07/30 05:09:30;;;;;;;3.05;1.80;;;;;;;15.71;79.86;98991.03;5067166;28;20021;-67
2021/07/30 05:11:55;;;;;;;2.22;1.77;;;;;;;16.18;78.25;98987.59;5074963;28;20032;-67
2021/07/30 05:14:21;;;;;;;3.22;2.17;;;;;;;16.67;76.29;98992.84;5087136;28;20020;-67
2021/07/30 05:16:46;;;;;;;5.47;2.55;;;;;;;16.91;74.69;98975.97;5087101;28;20023;-67
2021/07/30 05:19:12;;;;;;;2.30;1.90;;;;;;;17.17;74.17;98968.69;5087072;28;20188;-67
2021/07/30 05:21:37;;;;;;;4.53;2.40;;;;;;;17.38;73.60;98977.59;5074076;28;20370;-67
2021/07/30 05:24:03;;;;;;;5.05;2.28;;;;;;;17.59;72.92;98955.41;5066933;28;20024;-67
2021/07/30 05:26:29;;;;;;;4.47;2.15;;;;;;;18.05;71.87;98975.63;5066856;28;20020;-67
2021/07/30 05:28:54;;;;;;;5.65;2.40;;;;;;;18.48;70.29;98971.00;5066859;28;20391;-67
2021/07/30 05:31:20;;;;;;;11.50;3.22;;;;;;;18.51;69.04;98954.00;5067862;28;20028;-67
2021/07/30 05:33:46;;;;;;;8.95;3.92;;;;;;;18.73;68.81;98954.75;5086750;28;20081;-67
2021/07/30 05:36:16;;;;;;;5.80;2.88;;;;;;;19.17;67.24;98951.66;5086722;28;20017;-67
2021/07/30 05:38:42;;;;;;;4.15;2.83;;;;;;;18.99;69.13;98936.53;5086647;28;20023;-67
2021/07/30 05:41:11;;;;;;;7.43;4.05;;;;;;;19.25;68.82;98945.97;5084288;28;20057;-67
2021/07/30 05:43:41;;;;;;;51.22;6.30;;;;;;;19.63;67.55;98950.28;5066544;28;20051;-67
2021/07/30 05:46:08;;;;;;;5.88;2.53;;;;;;;19.77;66.82;98931.75;5066493;28;20331;-67
2021/07/30 05:48:34;;;;;;;8.60;2.40;;;;;;;20.01;66.04;98934.94;5057265;28;20045;-67
2021/07/30 05:50:59;;;;;;;6.07;2.60;;;;;;;20.58;65.71;98948.78;5076897;28;20032;-67
2021/07/30 05:53:24;;;;;;;7.53;2.97;;;;;;;20.86;64.45;98932.06;5067664;28;20108;-67
2021/07/30 05:55:50;;;;;;;10.18;2.65;;;;;;;21.24;62.64;98928.97;5062884;28;20022;-67
2021/07/30 05:58:15;;;;;;;8.45;3.95;;;;;;;21.55;61.81;98921.84;5046312;28;20088;-67
2021/07/30 06:00:41;;;;;;;5.20;2.70;;;;;;;21.45;62.25;98905.44;5046223;28;20042;-67
2021/07/30 06:03:07;;;;;;;12.88;3.58;;;;;;;21.62;62.91;98912.47;5063763;28;20219;-67
2021/07/30 06:05:32;;;;;;;4.80;2.60;;;;;;;22.10;61.65;98909.56;5072401;28;20379;-67
2021/07/30 06:07:58;;;;;;;7.63;3.00;;;;;;;22.86;59.47;98927.97;5063477;28;20025;-67
2021/07/30 06:10:24;;;;;;;13.02;3.67;;;;;;;22.67;59.84;98912.19;5057806;28;20021;-67
2021/07/30 06:12:50;;;;;;;5.28;2.67;;;;;;;23.14;59.49;98917.19;5048901;28;20031;-67
2021/07/30 06:15:15;;;;;;;6.35;3.35;;;;;;;23.32;59.24;98910.63;5066008;28;20219;-68
2021/07/30 06:17:41;;;;;;;9.70;3.22;;;;;;;23.79;57.69;98924.41;5065892;28;20035;-68
2021/07/30 06:20:10;;;;;;;9.90;3.63;;;;;;;23.90;57.19;98913.78;5059862;28;20032;-67
2021/07/30 06:22:38;;;;;;;11.57;3.85;;;;;;;24.23;56.19;98906.09;5048642;28;20030;-67
2021/07/30 06:25:05;;;;;;;9.60;3.58;;;;;;;24.06;57.14;98887.59;5064384;28;20051;-67
2021/07/30 06:27:31;;;;;;;9.80;3.90;;;;;;;23.94;56.63;98853.50;5062003;28;20079;-67
2021/07/30 06:29:57;;;;;;;9.00;3.70;;;;;;;24.39;57.80;98863.69;5052143;28;20316;-67
2021/07/30 06:32:23;;;;;;;9.40;3.75;;;;;;;25.11;56.13;98882.59;5061551;28;20081;-67
2021/07/30 06:34:48;;;;;;;11.30;4.10;;;;;;;25.24;54.48;98869.94;5045604;28;20085;-67
2021/07/30 06:37:14;;;;;;;7.90;3.53;;;;;;;25.59;51.55;98864.59;5054220;28;20025;-67
2021/07/30 06:39:40;;;;;;;8.10;3.60;;;;;;;25.53;55.34;98856.16;5065482;28;20216;-67
2021/07/30 06:42:05;;;;;;;9.93;2.63;;;;;;;25.50;55.45;98842.91;5065419;28;20020;-67
2021/07/30 06:44:31;;;;;;;8.30;3.80;;;;;;;25.32;55.62;98823.59;5065425;28;20087;-67
2021/07/30 06:46:56;;;;;;;9.27;3.42;;;;;;;25.76;54.79;98844.44;5052119;28;20091;-67
2021/07/30 06:49:22;;;;;;;9.52;3.05;;;;;;;26.01;54.01;98839.78;5061380;28;20044;-67
2021/07/30 06:51:47;;;;;;;8.18;3.47;;;;;;;26.72;51.39;98858.31;5059220;28;20089;-67
2021/07/30 06:54:12;;;;;;;6.82;3.30;;;;;;;26.63;51.88;99102.97;5046917;28;20092;-67
2021/07/30 06:56:38;;;;;;;5.50;3.00;;;;;;;26.78;52.11;98884.84;5067128;28;20020;-67
2021/07/30 06:59:03;;;;;;;7.45;3.55;;;;;;;26.81;52.25;98857.56;5064939;28;20041;-67
2021/07/30 07:01:29;;;;;;;8.15;3.25;;;;;;;27.15;51.09;98845.72;5065076;28;20179;-67
2021/07/30 07:03:54;;;;;;;7.05;2.72;;;;;;;27.34;50.98;98845.06;5062420;28;20021;-67
2021/07/30 07:06:19;;;;;;;9.15;3.17;;;;;;;27.81;48.60;98850.00;5045074;28;20186;-67
2021/07/30 07:08:45;;;;;;;8.68;3.58;;;;;;;27.53;50.84;98808.25;5072488;28;20024;-67
2021/07/30 07:11:11;;;;;;;7.57;3.40;;;;;;;28.11;49.09;98826.59;5084863;28;20025;-67
2021/07/30 07:13:42;;;;;;;15.68;3.65;;;;;;;28.23;48.53;98803.88;5075436;28;20104;-67
2021/07/30 07:16:07;;;;;;;9.90;3.70;;;;;;;28.17;47.02;98800.84;5051999;28;20224;-67
2021/07/30 07:18:33;;;;;;;9.70;3.78;;;;;;;28.66;42.93;98812.59;5049696;28;20268;-67
2021/07/30 07:20:59;;;;;;;7.50;3.40;;;;;;;28.87;44.78;98810.69;5052873;28;20021;-67
2021/07/30 07:23:25;;;;;;;9.32;3.28;;;;;;;29.51;41.74;98821.06;5054214;28;20096;-67
2021/07/30 07:25:50;;;;;;;127.18;8.40;;;;;;;29.13;41.06;98790.22;5056801;28;20300;-67
2021/07/30 07:28:16;;;;;;;7.38;3.58;;;;;;;29.14;41.85;98782.94;5048163;28;20024;-67
2021/07/30 07:30:41;;;;;;;6.93;3.63;;;;;;;28.31;43.32;98747.19;5045189;28;20072;-67
2021/07/30 07:33:06;;;;;;;17.55;3.88;;;;;;;27.66;43.03;98738.59;5056621;28;20025;-67
2021/07/30 07:35:32;;;;;;;8.77;4.07;;;;;;;29.01;42.88;98788.59;5044473;28;20088;-67
2021/07/30 07:38:06;;;;;;;8.02;3.10;;;;;;;29.11;41.96;98786.78;5044436;28;20335;-67
2021/07/30 07:40:32;;;;;;;6.57;3.75;;;;;;;29.64;41.65;98776.38;5055783;28;20330;-67
2021/07/30 07:42:58;;;;;;;10.18;3.75;;;;;;;29.04;41.90;98734.13;5057267;28;20308;-67
2021/07/30 07:45:24;;;;;;;7.72;3.28;;;;;;;28.74;41.45;98717.09;5048839;28;20275;-67
2021/07/30 07:47:50;;;;;;;5.65;3.10;;;;;;;28.51;43.47;98721.06;5055000;28;20029;-67
2021/07/30 07:50:15;;;;;;;7.07;3.90;;;;;;;29.81;41.08;98742.22;5050013;28;20279;-67
2021/07/30 07:52:40;;;;;;;14.63;3.47;;;;;;;30.01;40.72;98752.84;5064184;28;20320;-67
2021/07/30 07:55:08;;;;;;;8.40;3.10;;;;;;;30.03;40.41;98720.13;5053340;28;20101;-67
2021/07/30 07:57:34;;;;;;;8.55;3.40;;;;;;;29.66;43.24;98703.81;5044186;28;20079;-67
2021/07/30 07:59:59;;;;;;;9.68;4.05;;;;;;;30.37;40.07;98724.84;5043945;28;20057;-67
2021/07/30 08:02:25;;;;;;;9.85;3.83;;;;;;;29.59;42.07;98663.84;5048865;28;20029;-67
2021/07/30 08:04:50;;;;;;;14.52;4.35;;;;;;;30.43;41.46;98701.69;5057926;28;20031;-67
2021/07/30 08:07:17;;;;;;;7.07;3.40;;;;;;;30.86;40.70;98704.56;5051547;28;20021;-67
2021/07/30 08:09:43;;;;;;;6.95;3.83;;;;;;;30.90;38.42;98686.94;5051380;28;20028;-67
2021/07/30 08:12:09;;;;;;;10.43;3.80;;;;;;;30.67;40.59;98672.06;5049556;28;20029;-67
2021/07/30 08:14:34;;;;;;;7.93;3.40;;;;;;;30.90;37.61;98671.47;5049404;28;20320;-67
2021/07/30 08:17:00;;;;;;;8.63;3.40;;;;;;;30.48;37.64;98640.44;5061360;28;20092;-67
2021/07/30 08:19:25;;;;;;;9.40;3.13;;;;;;;30.76;39.35;98714.66;5046426;28;20021;-67
2021/07/30 08:21:50;;;;;;;5.15;3.10;;;;;;;31.09;37.66;98694.94;5051882;28;20044;-67
2021/07/30 08:24:16;;;;;;;7.85;3.45;;;;;;;31.33;36.16;98676.13;5050758;28;20344;-67
2021/07/30 08:26:41;;;;;;;7.43;3.53;;;;;;;31.37;36.42;98726.50;5051009;28;20032;-67
2021/07/30 08:29:06;;;;;;;9.52;3.50;;;;;;;30.73;36.32;98674.19;5055390;28;20025;-67
2021/07/30 08:31:32;;;;;;;10.07;3.58;;;;;;;30.71;38.83;98673.44;5053293;28;20013;-67
2021/07/30 08:33:57;;;;;;;7.57;3.65;;;;;;;30.95;37.68;98671.00;5057317;28;20211;-67
2021/07/30 08:36:23;;;;;;;7.20;3.45;;;;;;;31.42;38.73;98675.19;5057976;28;20021;-67
2021/07/30 08:38:48;;;;;;;7.35;3.45;;;;;;;31.65;36.56;98660.03;5053066;28;20025;-67
2021/07/30 08:41:21;;;;;;;10.43;3.47;;;;;;;31.82;38.75;98652.84;5063017;28;20059;-67
2021/07/30 08:43:51;;;;;;;8.07;3.40;;;;;;;31.97;36.56;98654.78;5047669;28;20028;-67
2021/07/30 08:46:16;;;;;;;9.77;3.67;;;;;;;31.52;36.83;98626.09;5058625;28;20316;-67
2021/07/30 08:48:42;;;;;;;6.72;4.00;;;;;;;31.87;36.88;98643.19;5067607;28;20092;-67
2021/07/30 08:51:09;;;;;;;9.68;3.92;;;;;;;31.99;35.16;98660.94;5067577;28;20017;-67
2021/07/30 08:53:35;;;;;;;6.63;3.47;;;;;;;31.73;38.53;98891.44;5066809;28;20066;-67
2021/07/30 08:56:02;;;;;;;6.78;3.45;;;;;;;32.07;37.42;98666.41;5047498;28;20084;-67
2021/07/30 08:58:27;;;;;;;10.82;3.75;;;;;;;31.52;38.24;98626.97;5047440;28;20028;-67
2021/07/30 09:00:53;;;;;;;7.53;3.90;;;;;;;31.80;38.25;98620.31;5047192;28;20045;-67
2021/07/30 09:03:18;;;;;;;5.30;3.55;;;;;;;32.01;38.11;98623.50;5047317;28;20316;-67
2021/07/30 09:05:45;;;;;;;8.57;4.13;;;;;;;30.77;38.73;98564.16;5047342;28;20029;-67
2021/07/30 09:08:21;;;;;;;10.30;3.80;;;;;;;31.96;37.81;98604.09;5047503;28;20311;-67
2021/07/30 09:10:47;;;;;;;7.70;3.38;;;;;;;32.29;36.58;98595.00;5049110;28;20025;-67
2021/07/30 09:13:23;;;;;;;7.88;3.85;;;;;;;32.16;36.78;98578.28;5057771;28;20040;-67
2021/07/30 09:16:11;;;;;;;5.97;3.65;;;;;;;31.83;38.87;98546.53;5067081;28;20088;-67
2021/07/30 09:18:39;;;;;;;11.10;4.13;;;;;;;32.34;38.57;98554.53;5049302;28;20204;-67
2021/07/30 09:21:24;;;;;;;8.50;3.70;;;;;;;30.92;40.81;98503.63;5056160;28;20025;-67
2021/07/30 09:24:02;;;;;;;6.93;4.22;;;;;;;31.40;37.70;98516.69;5056094;28;20017;-67
2021/07/30 09:26:27;;;;;;;6.78;3.60;;;;;;;32.02;37.42;98527.19;5054987;28;20024;-67
2021/07/30 09:28:54;;;;;;;9.05;4.00;;;;;;;32.34;38.29;98521.84;5059067;28;20028;-67
2021/07/30 09:31:20;;;;;;;7.28;4.07;;;;;;;32.76;36.35;98519.78;5056917;28;20016;-67
2021/07/30 09:33:45;;;;;;;5.85;3.60;;;;;;;32.28;37.66;98483.47;5054516;28;20021;-67
2021/07/30 09:36:10;;;;;;;7.57;3.58;;;;;;;31.82;39.15;98471.28;5056729;28;20094;-67
2021/07/30 09:38:36;;;;;;;8.13;3.90;;;;;;;31.79;36.60;98449.81;5055135;28;20051;-67
2021/07/30 09:41:12;;;;;;;9.40;3.85;;;;;;;31.90;37.45;98452.28;5054493;28;20061;-67
2021/07/30 09:43:43;;;;;;;6.00;3.80;;;;;;;32.38;38.10;98457.78;5056370;28;20032;-67
2021/07/30 09:46:14;;;;;;;15.83;4.70;;;;;;;32.07;36.12;98448.53;5053985;28;20022;-67
2021/07/30 09:48:52;;;;;;;6.50;3.72;;;;;;;32.46;38.52;98441.44;5060353;28;20249;-67
2021/07/30 09:51:18;;;;;;;8.30;3.80;;;;;;;32.66;37.47;98440.06;5059360;28;20256;-67
2021/07/30 09:53:45;;;;;;;12.82;4.15;;;;;;;31.87;39.29;98408.19;5053538;28;20056;-67
2021/07/30 09:56:15;;;;;;;8.70;3.53;;;;;;;31.99;36.64;98417.72;5057352;28;20025;-67
2021/07/30 09:58:43;;;;;;;7.22;3.78;;;;;;;32.57;36.62;98422.03;5056105;28;20044;-67
2021/07/30 10:01:15;;;;;;;7.60;3.40;;;;;;;31.93;36.27;98391.19;5055810;28;20017;-67
2021/07/30 10:03:42;;;;;;;7.65;4.18;;;;;;;32.03;37.95;98392.72;5052824;28;20017;-67
2021/07/30 10:06:09;;;;;;;7.65;4.70;;;;;;;31.87;39.36;98370.94;5063307;28;20032;-67
2021/07/30 10:08:35;;;;;;;7.70;4.10;;;;;;;31.67;36.76;98358.63;5056032;28;20071;-67
2021/07/30 10:11:01;;;;;;;7.80;3.72;;;;;;;32.02;36.44;98371.97;5063665;28;20017;-67
2021/07/30 10:13:35;;;;;;;12.10;4.63;;;;;;;31.73;36.48;98357.09;5066017;28;20246;-67
2021/07/30 10:16:03;;;;;;;12.88;4.30;;;;;;;30.27;42.06;98299.53;5055200;28;20025;-67
2021/07/30 10:18:28;;;;;;;8.68;3.90;;;;;;;29.87;42.20;98291.09;5065218;28;20048;-67
2021/07/30 10:21:00;;;;;;;8.73;4.30;;;;;;;30.73;42.85;98319.06;5059423;28;20032;-67
2021/07/30 10:23:26;;;;;;;;;;;;;;;30.44;41.22;98295.94;5052696;28;20025;-67
2021/07/30 10:25:54;;;;;;;7.10;3.80;;;;;;;31.30;41.38;98328.28;5046038;28;19992;-67
2021/07/30 10:28:26;;;;;;;8.77;4.40;;;;;;;31.07;41.61;98310.84;5052128;28;20027;-67
2021/07/30 10:30:52;;;;;;;8.48;4.93;;;;;;;31.54;40.25;98331.03;5057606;28;20331;-71
2021/07/30 10:33:37;;;;;;;8.27;3.80;;;;;;;31.78;39.86;98322.91;5067041;28;20025;-68
2021/07/30 10:36:06;;;;;;;8.43;4.20;;;;;;;32.18;39.58;98324.81;5047293;28;20013;-68
2021/07/30 10:38:32;;;;;;;8.10;4.55;;;;;;;31.95;37.70;98294.69;5047497;28;20049;-69
2021/07/30 10:40:57;;;;;;;10.82;4.22;;;;;;;32.05;38.32;98297.25;5059070;28;20021;-68
2021/07/30 10:43:24;;;;;;;7.20;4.53;;;;;;;31.69;40.60;98274.94;5056426;28;20028;-67
2021/07/30 10:46:08;;;;;;;8.93;4.65;;;;;;;30.73;40.77;98252.97;5061577;28;20040;-68
2021/07/30 10:48:38;;;;;;;10.32;4.78;;;;;;;30.42;41.17;98233.63;5059285;28;20027;-68
2021/07/30 10:51:19;;;;;;;7.38;4.72;;;;;;;29.09;43.65;98203.28;5046731;28;20093;-67
2021/07/30 10:53:49;;;;;;;8.85;4.78;;;;;;;29.64;42.50;98231.06;5060279;28;20021;-67
2021/07/30 10:56:17;;;;;;;10.93;4.50;;;;;;;29.50;43.54;98219.88;5058877;28;20308;-67
2021/07/30 10:58:45;;;;;;;6.93;4.30;;;;;;;29.68;43.40;98215.31;5058885;28;20029;-67
2021/07/30 11:01:19;;;;;;;8.05;4.80;;;;;;;29.39;44.63;98209.31;5059991;28;20039;-67
2021/07/30 11:06:26;;;;;;;7.35;4.50;;;;;;;30.67;44.80;98245.44;5057836;28;20041;-68
2021/07/30 11:11:45;;;;;;;6.40;4.50;;;;;;;29.15;44.12;98196.38;5057751;28;20017;-67
2021/07/30 11:14:13;;;;;;;7.65;4.80;;;;;;;28.36;45.22;98165.53;5058316;28;20021;-67
2021/07/30 11:16:44;;;;;;;8.68;4.40;;;;;;;27.67;47.28;98161.53;5047057;28;20243;-67
2021/07/30 11:19:12;;;;;;;8.48;5.22;;;;;;;26.95;47.70;98144.09;5048365;28;20317;-67
2021/07/30 11:21:38;;;;;;;11.50;5.10;;;;;;;27.39;48.57;98159.75;5057372;28;20025;-67
2021/07/30 11:24:05;;;;;;;9.20;5.10;;;;;;;27.16;51.09;98147.50;5058860;28;20031;-67
2021/07/30 11:26:32;;;;;;;11.82;5.72;;;;;;;27.92;50.65;98174.44;5059349;28;20092;-67
2021/07/30 11:29:03;;;;;;;7.85;4.72;;;;;;;28.69;49.27;98186.56;5059509;28;20120;-67
2021/07/30 11:31:28;;;;;;;9.07;5.30;;;;;;;29.11;48.60;98195.84;5059024;28;20039;-67
2021/07/30 11:33:55;;;;;;;7.40;4.22;;;;;;;29.23;47.23;98183.75;5055600;28;20324;-67